sensor_id;sensor_type;location;lat;lon;timestamp;P1;durP1;ratioP1;P2;durP2;ratioP2
44169;SDS011;29836;52.286;9.576;2022-11-04T00:01:33;4.07;;;2.13;;
44169;SDS011;29836;52.286;9.576;2022-11-04T00:04:01;5.05;;;2.60;;
44169;SDS011;29836;52.286;9.576;2022-11-04T00:06:26;3.30;;;2.00;;
44169;SDS011;29836;52.286;9.576;2022-11-04T00:08:53;4.05;;;1.85;;
44169;SDS011;29836;52.286;9.576;2022-11-04T00:11:20;6.30;;;2.60;;
44169;SDS011;29836;52.286;9.576;2022-11-04T00:14:05;4.35;;;2.25;;
44169;SDS011;29836;52.286;9.576;2022-11-04T00:16:31;6.20;;;2.30;;
44169;SDS011;29836;52.286;9.576;2022-11-04T00:19:16;4.88;;;2.58;;
44169;SDS011;29836;52.286;9.576;2022-11-04T00:21:41;3.22;;;1.95;;
44169;SDS011;29836;52.286;9.576;2022-11-04T00:24:25;5.47;;;2.45;;
44169;SDS011;29836;52.286;9.576;2022-11-04T00:27:10;3.63;;;1.70;;
44169;SDS011;29836;52.286;9.576;2022-11-04T00:29:55;5.32;;;2.60;;
44169;SDS011;29836;52.286;9.576;2022-11-04T00:32:21;6.28;;;2.47;;
44169;SDS011;29836;52.286;9.576;2022-11-04T00:35:05;7.22;;;2.75;;
44169;SDS011;29836;52.286;9.576;2022-11-04T00:37:34;8.85;;;2.90;;
44169;SDS011;29836;52.286;9.576;2022-11-04T00:40:01;6.72;;;2.70;;
44169;SDS011;29836;52.286;9.576;2022-11-04T00:42:27;6.00;;;3.10;;
44169;SDS011;29836;52.286;9.576;2022-11-04T00:44:53;8.15;;;3.15;;
44169;SDS011;29836;52.286;9.576;2022-11-04T00:47:18;7.40;;;2.78;;
44169;SDS011;29836;52.286;9.576;2022-11-04T00:49:44;5.47;;;2.83;;
44169;SDS011;29836;52.286;9.576;2022-11-04T00:52:09;7.03;;;2.85;;
44169;SDS011;29836;52.286;9.576;2022-11-04T00:54:35;4.95;;;2.90;;
44169;SDS011;29836;52.286;9.576;2022-11-04T00:57:00;6.60;;;3.22;;
44169;SDS011;29836;52.286;9.576;2022-11-04T00:59:26;11.07;;;3.05;;
44169;SDS011;29836;52.286;9.576;2022-11-04T01:01:51;6.60;;;3.47;;
44169;SDS011;29836;52.286;9.576;2022-11-04T01:04:17;5.70;;;3.75;;
44169;SDS011;29836;52.286;9.576;2022-11-04T01:06:43;6.60;;;3.13;;
44169;SDS011;29836;52.286;9.576;2022-11-04T01:09:09;6.20;;;2.92;;
44169;SDS011;29836;52.286;9.576;2022-11-04T01:11:36;8.18;;;3.20;;
44169;SDS011;29836;52.286;9.576;2022-11-04T01:14:02;5.95;;;2.85;;
44169;SDS011;29836;52.286;9.576;2022-11-04T01:16:28;4.45;;;2.42;;
44169;SDS011;29836;52.286;9.576;2022-11-04T01:18:53;3.38;;;2.28;;
44169;SDS011;29836;52.286;9.576;2022-11-04T01:21:19;4.22;;;2.50;;
44169;SDS011;29836;52.286;9.576;2022-11-04T01:23:45;4.85;;;2.35;;
44169;SDS011;29836;52.286;9.576;2022-11-04T01:26:12;3.03;;;1.98;;
44169;SDS011;29836;52.286;9.576;2022-11-04T01:28:42;4.47;;;2.15;;
44169;SDS011;29836;52.286;9.576;2022-11-04T01:31:09;5.15;;;2.40;;
44169;SDS011;29836;52.286;9.576;2022-11-04T01:33:36;3.35;;;1.90;;
44169;SDS011;29836;52.286;9.576;2022-11-04T01:36:03;4.38;;;2.13;;
44169;SDS011;29836;52.286;9.576;2022-11-04T01:38:29;4.10;;;2.28;;
44169;SDS011;29836;52.286;9.576;2022-11-04T01:40:55;5.32;;;2.35;;
44169;SDS011;29836;52.286;9.576;2022-11-04T01:43:21;4.70;;;2.42;;
44169;SDS011;29836;52.286;9.576;2022-11-04T01:45:48;5.05;;;2.58;;
44169;SDS011;29836;52.286;9.576;2022-11-04T01:48:19;3.20;;;2.05;;
44169;SDS011;29836;52.286;9.576;2022-11-04T01:50:49;5.20;;;2.58;;
44169;SDS011;29836;52.286;9.576;2022-11-04T01:53:17;4.63;;;2.47;;
44169;SDS011;29836;52.286;9.576;2022-11-04T01:55:54;5.47;;;2.80;;
44169;SDS011;29836;52.286;9.576;2022-11-04T01:58:24;4.05;;;2.60;;
44169;SDS011;29836;52.286;9.576;2022-11-04T02:00:53;3.80;;;2.53;;
44169;SDS011;29836;52.286;9.576;2022-11-04T02:03:25;4.00;;;2.38;;
44169;SDS011;29836;52.286;9.576;2022-11-04T02:05:56;6.78;;;3.13;;
44169;SDS011;29836;52.286;9.576;2022-11-04T02:08:23;6.32;;;2.60;;
44169;SDS011;29836;52.286;9.576;2022-11-04T02:10:51;4.80;;;2.45;;
44169;SDS011;29836;52.286;9.576;2022-11-04T02:13:21;4.45;;;3.00;;
44169;SDS011;29836;52.286;9.576;2022-11-04T02:15:56;6.35;;;2.53;;
44169;SDS011;29836;52.286;9.576;2022-11-04T02:40:18;4.95;;;2.70;;
44169;SDS011;29836;52.286;9.576;2022-11-04T02:42:55;4.72;;;2.25;;
44169;SDS011;29836;52.286;9.576;2022-11-04T02:45:43;5.38;;;2.70;;
44169;SDS011;29836;52.286;9.576;2022-11-04T02:51:00;2.13;;;1.42;;
44169;SDS011;29836;52.286;9.576;2022-11-04T02:53:41;4.03;;;1.52;;
44169;SDS011;29836;52.286;9.576;2022-11-04T02:56:11;2.67;;;1.67;;
44169;SDS011;29836;52.286;9.576;2022-11-04T02:58:41;2.25;;;1.50;;
44169;SDS011;29836;52.286;9.576;2022-11-04T03:01:10;2.33;;;1.38;;
44169;SDS011;29836;52.286;9.576;2022-11-04T03:03:39;4.18;;;1.50;;
44169;SDS011;29836;52.286;9.576;2022-11-04T03:06:09;2.83;;;1.20;;
44169;SDS011;29836;52.286;9.576;2022-11-04T03:08:40;4.70;;;1.40;;
44169;SDS011;29836;52.286;9.576;2022-11-04T03:11:13;1.20;;;0.85;;
44169;SDS011;29836;52.286;9.576;2022-11-04T03:13:42;2.97;;;0.93;;
44169;SDS011;29836;52.286;9.576;2022-11-04T03:16:19;1.52;;;1.00;;
44169;SDS011;29836;52.286;9.576;2022-11-04T03:21:36;3.63;;;1.00;;
44169;SDS011;29836;52.286;9.576;2022-11-04T03:24:05;1.00;;;0.73;;
44169;SDS011;29836;52.286;9.576;2022-11-04T03:26:33;1.88;;;1.25;;
44169;SDS011;29836;52.286;9.576;2022-11-04T03:31:48;1.75;;;1.27;;
44169;SDS011;29836;52.286;9.576;2022-11-04T03:34:35;2.30;;;1.20;;
44169;SDS011;29836;52.286;9.576;2022-11-04T03:37:01;2.35;;;1.60;;
44169;SDS011;29836;52.286;9.576;2022-11-04T03:39:28;4.40;;;2.05;;
44169;SDS011;29836;52.286;9.576;2022-11-04T03:41:58;2.97;;;2.00;;
44169;SDS011;29836;52.286;9.576;2022-11-04T03:44:43;3.80;;;1.60;;
44169;SDS011;29836;52.286;9.576;2022-11-04T03:47:21;2.55;;;1.80;;
44169;SDS011;29836;52.286;9.576;2022-11-04T03:50:00;6.45;;;2.42;;
44169;SDS011;29836;52.286;9.576;2022-11-04T03:52:44;2.97;;;2.08;;
44169;SDS011;29836;52.286;9.576;2022-11-04T03:55:10;4.28;;;2.33;;
44169;SDS011;29836;52.286;9.576;2022-11-04T04:02:46;4.50;;;3.05;;
44169;SDS011;29836;52.286;9.576;2022-11-04T04:05:15;5.43;;;3.33;;
44169;SDS011;29836;52.286;9.576;2022-11-04T04:07:58;6.30;;;3.55;;
44169;SDS011;29836;52.286;9.576;2022-11-04T04:16:07;6.97;;;3.72;;
44169;SDS011;29836;52.286;9.576;2022-11-04T04:21:15;5.20;;;3.28;;
44169;SDS011;29836;52.286;9.576;2022-11-04T04:23:44;5.32;;;3.53;;
44169;SDS011;29836;52.286;9.576;2022-11-04T04:26:32;5.03;;;3.38;;
44169;SDS011;29836;52.286;9.576;2022-11-04T04:29:17;5.40;;;3.58;;
44169;SDS011;29836;52.286;9.576;2022-11-04T04:31:44;5.40;;;3.13;;
44169;SDS011;29836;52.286;9.576;2022-11-04T04:34:17;4.28;;;3.10;;
44169;SDS011;29836;52.286;9.576;2022-11-04T04:36:47;6.82;;;4.05;;
44169;SDS011;29836;52.286;9.576;2022-11-04T04:39:46;5.15;;;3.40;;
44169;SDS011;29836;52.286;9.576;2022-11-04T04:42:38;6.63;;;3.50;;
44169;SDS011;29836;52.286;9.576;2022-11-04T04:45:36;5.50;;;3.78;;
44169;SDS011;29836;52.286;9.576;2022-11-04T04:48:04;7.47;;;4.07;;
44169;SDS011;29836;52.286;9.576;2022-11-04T04:50:34;4.75;;;3.20;;
44169;SDS011;29836;52.286;9.576;2022-11-04T04:53:15;4.57;;;3.35;;
44169;SDS011;29836;52.286;9.576;2022-11-04T04:55:40;5.00;;;2.90;;
44169;SDS011;29836;52.286;9.576;2022-11-04T04:58:06;3.95;;;3.10;;
44169;SDS011;29836;52.286;9.576;2022-11-04T05:00:31;4.53;;;3.28;;
44169;SDS011;29836;52.286;9.576;2022-11-04T05:02:57;4.35;;;3.28;;
44169;SDS011;29836;52.286;9.576;2022-11-04T05:05:23;6.20;;;3.05;;
44169;SDS011;29836;52.286;9.576;2022-11-04T05:07:49;5.63;;;3.50;;
44169;SDS011;29836;52.286;9.576;2022-11-04T05:10:15;5.65;;;3.50;;
44169;SDS011;29836;52.286;9.576;2022-11-04T05:12:41;6.72;;;3.90;;
44169;SDS011;29836;52.286;9.576;2022-11-04T05:15:26;5.90;;;3.80;;
44169;SDS011;29836;52.286;9.576;2022-11-04T05:17:53;6.03;;;3.92;;
44169;SDS011;29836;52.286;9.576;2022-11-04T05:20:19;6.22;;;3.75;;
44169;SDS011;29836;52.286;9.576;2022-11-04T05:22:45;7.15;;;3.47;;
44169;SDS011;29836;52.286;9.576;2022-11-04T05:25:11;7.32;;;3.78;;
44169;SDS011;29836;52.286;9.576;2022-11-04T05:27:36;5.03;;;3.55;;
44169;SDS011;29836;52.286;9.576;2022-11-04T05:30:02;6.90;;;3.50;;
44169;SDS011;29836;52.286;9.576;2022-11-04T05:32:28;7.25;;;3.40;;
44169;SDS011;29836;52.286;9.576;2022-11-04T05:34:55;6.93;;;4.32;;
44169;SDS011;29836;52.286;9.576;2022-11-04T05:37:21;4.70;;;3.45;;
44169;SDS011;29836;52.286;9.576;2022-11-04T05:39:46;5.47;;;3.55;;
44169;SDS011;29836;52.286;9.576;2022-11-04T05:42:12;4.88;;;3.13;;
44169;SDS011;29836;52.286;9.576;2022-11-04T05:44:37;6.03;;;3.58;;
44169;SDS011;29836;52.286;9.576;2022-11-04T05:47:03;6.50;;;4.20;;
44169;SDS011;29836;52.286;9.576;2022-11-04T05:49:28;6.13;;;3.78;;
44169;SDS011;29836;52.286;9.576;2022-11-04T05:51:54;9.00;;;4.25;;
44169;SDS011;29836;52.286;9.576;2022-11-04T05:54:19;5.63;;;3.38;;
44169;SDS011;29836;52.286;9.576;2022-11-04T05:56:45;6.63;;;3.90;;
44169;SDS011;29836;52.286;9.576;2022-11-04T05:59:10;6.53;;;3.78;;
44169;SDS011;29836;52.286;9.576;2022-11-04T06:01:37;4.90;;;3.25;;
44169;SDS011;29836;52.286;9.576;2022-11-04T06:04:04;5.47;;;3.40;;
44169;SDS011;29836;52.286;9.576;2022-11-04T06:06:32;5.60;;;3.28;;
44169;SDS011;29836;52.286;9.576;2022-11-04T06:09:00;6.13;;;3.58;;
44169;SDS011;29836;52.286;9.576;2022-11-04T06:11:27;5.25;;;3.42;;
44169;SDS011;29836;52.286;9.576;2022-11-04T06:13:54;5.05;;;3.50;;
44169;SDS011;29836;52.286;9.576;2022-11-04T06:16:20;6.43;;;3.53;;
44169;SDS011;29836;52.286;9.576;2022-11-04T06:18:46;5.63;;;3.40;;
44169;SDS011;29836;52.286;9.576;2022-11-04T06:23:37;5.53;;;3.67;;
44169;SDS011;29836;52.286;9.576;2022-11-04T06:26:03;5.00;;;3.25;;
44169;SDS011;29836;52.286;9.576;2022-11-04T06:28:28;14.50;;;4.22;;
44169;SDS011;29836;52.286;9.576;2022-11-04T06:30:56;7.47;;;3.72;;
44169;SDS011;29836;52.286;9.576;2022-11-04T06:33:22;9.98;;;4.45;;
44169;SDS011;29836;52.286;9.576;2022-11-04T06:35:48;6.32;;;4.13;;
44169;SDS011;29836;52.286;9.576;2022-11-04T06:38:13;7.30;;;4.15;;
44169;SDS011;29836;52.286;9.576;2022-11-04T06:40:39;5.82;;;3.92;;
44169;SDS011;29836;52.286;9.576;2022-11-04T06:43:04;6.22;;;4.00;;
44169;SDS011;29836;52.286;9.576;2022-11-04T06:45:30;6.28;;;3.95;;
44169;SDS011;29836;52.286;9.576;2022-11-04T06:47:55;6.35;;;3.85;;
44169;SDS011;29836;52.286;9.576;2022-11-04T06:50:21;10.57;;;3.92;;
44169;SDS011;29836;52.286;9.576;2022-11-04T06:52:46;6.15;;;4.05;;
44169;SDS011;29836;52.286;9.576;2022-11-04T06:55:12;6.05;;;3.13;;
44169;SDS011;29836;52.286;9.576;2022-11-04T06:57:38;5.75;;;3.50;;
44169;SDS011;29836;52.286;9.576;2022-11-04T07:00:03;5.10;;;3.05;;
44169;SDS011;29836;52.286;9.576;2022-11-04T07:02:29;5.65;;;3.22;;
44169;SDS011;29836;52.286;9.576;2022-11-04T07:04:55;5.75;;;3.60;;
44169;SDS011;29836;52.286;9.576;2022-11-04T07:07:20;5.03;;;3.10;;
44169;SDS011;29836;52.286;9.576;2022-11-04T07:09:46;6.53;;;3.13;;
44169;SDS011;29836;52.286;9.576;2022-11-04T07:12:11;5.25;;;3.38;;
44169;SDS011;29836;52.286;9.576;2022-11-04T07:14:37;4.80;;;2.80;;
44169;SDS011;29836;52.286;9.576;2022-11-04T07:17:02;3.45;;;2.50;;
44169;SDS011;29836;52.286;9.576;2022-11-04T07:19:28;2.85;;;1.90;;
44169;SDS011;29836;52.286;9.576;2022-11-04T07:21:53;4.15;;;2.55;;
44169;SDS011;29836;52.286;9.576;2022-11-04T07:24:19;5.30;;;2.40;;
44169;SDS011;29836;52.286;9.576;2022-11-04T07:26:44;5.65;;;2.67;;
44169;SDS011;29836;52.286;9.576;2022-11-04T07:29:10;7.10;;;2.90;;
44169;SDS011;29836;52.286;9.576;2022-11-04T07:31:36;5.32;;;2.63;;
44169;SDS011;29836;52.286;9.576;2022-11-04T07:34:02;6.05;;;3.50;;
44169;SDS011;29836;52.286;9.576;2022-11-04T07:36:28;7.13;;;3.55;;
44169;SDS011;29836;52.286;9.576;2022-11-04T07:38:54;10.23;;;3.50;;
44169;SDS011;29836;52.286;9.576;2022-11-04T07:41:20;6.47;;;2.60;;
44169;SDS011;29836;52.286;9.576;2022-11-04T07:43:49;6.05;;;2.90;;
44169;SDS011;29836;52.286;9.576;2022-11-04T07:46:15;7.03;;;3.20;;
44169;SDS011;29836;52.286;9.576;2022-11-04T07:48:42;5.68;;;2.58;;
44169;SDS011;29836;52.286;9.576;2022-11-04T07:51:10;4.88;;;3.00;;
44169;SDS011;29836;52.286;9.576;2022-11-04T07:53:38;5.43;;;2.80;;
44169;SDS011;29836;52.286;9.576;2022-11-04T07:56:05;5.15;;;2.92;;
44169;SDS011;29836;52.286;9.576;2022-11-04T07:58:32;7.15;;;3.33;;
44169;SDS011;29836;52.286;9.576;2022-11-04T08:00:59;5.88;;;3.28;;
44169;SDS011;29836;52.286;9.576;2022-11-04T08:03:29;11.82;;;3.22;;
44169;SDS011;29836;52.286;9.576;2022-11-04T08:05:58;6.93;;;2.83;;
44169;SDS011;29836;52.286;9.576;2022-11-04T08:08:26;6.00;;;2.60;;
44169;SDS011;29836;52.286;9.576;2022-11-04T08:10:53;4.85;;;2.92;;
44169;SDS011;29836;52.286;9.576;2022-11-04T08:13:20;4.47;;;2.50;;
44169;SDS011;29836;52.286;9.576;2022-11-04T08:15:46;4.32;;;2.30;;
44169;SDS011;29836;52.286;9.576;2022-11-04T08:18:11;3.55;;;1.95;;
44169;SDS011;29836;52.286;9.576;2022-11-04T08:20:37;6.38;;;2.58;;
44169;SDS011;29836;52.286;9.576;2022-11-04T08:23:02;4.95;;;2.35;;
44169;SDS011;29836;52.286;9.576;2022-11-04T08:25:28;4.28;;;2.22;;
44169;SDS011;29836;52.286;9.576;2022-11-04T08:27:53;4.35;;;2.40;;
44169;SDS011;29836;52.286;9.576;2022-11-04T08:30:19;3.22;;;1.92;;
44169;SDS011;29836;52.286;9.576;2022-11-04T08:32:44;4.13;;;2.45;;
44169;SDS011;29836;52.286;9.576;2022-11-04T08:35:10;5.28;;;2.58;;
44169;SDS011;29836;52.286;9.576;2022-11-04T08:37:36;7.57;;;2.65;;
44169;SDS011;29836;52.286;9.576;2022-11-04T08:40:03;5.15;;;2.30;;
44169;SDS011;29836;52.286;9.576;2022-11-04T08:42:29;6.55;;;2.78;;
44169;SDS011;29836;52.286;9.576;2022-11-04T08:44:54;10.32;;;2.47;;
44169;SDS011;29836;52.286;9.576;2022-11-04T08:47:20;6.03;;;2.40;;
44169;SDS011;29836;52.286;9.576;2022-11-04T08:49:45;3.08;;;2.03;;
44169;SDS011;29836;52.286;9.576;2022-11-04T08:52:11;8.02;;;2.83;;
44169;SDS011;29836;52.286;9.576;2022-11-04T08:54:36;9.70;;;2.80;;
44169;SDS011;29836;52.286;9.576;2022-11-04T08:57:02;5.93;;;2.45;;
44169;SDS011;29836;52.286;9.576;2022-11-04T08:59:28;7.78;;;2.47;;
44169;SDS011;29836;52.286;9.576;2022-11-04T09:01:53;4.25;;;2.30;;
44169;SDS011;29836;52.286;9.576;2022-11-04T09:04:19;6.07;;;2.50;;
44169;SDS011;29836;52.286;9.576;2022-11-04T09:06:45;4.20;;;2.55;;
44169;SDS011;29836;52.286;9.576;2022-11-04T09:09:12;8.00;;;2.72;;
44169;SDS011;29836;52.286;9.576;2022-11-04T09:11:40;4.60;;;2.40;;
44169;SDS011;29836;52.286;9.576;2022-11-04T09:14:07;3.60;;;1.88;;
44169;SDS011;29836;52.286;9.576;2022-11-04T09:16:33;2.92;;;2.05;;
44169;SDS011;29836;52.286;9.576;2022-11-04T09:19:00;3.55;;;2.03;;
44169;SDS011;29836;52.286;9.576;2022-11-04T09:21:26;5.43;;;2.63;;
44169;SDS011;29836;52.286;9.576;2022-11-04T09:23:53;4.80;;;2.05;;
44169;SDS011;29836;52.286;9.576;2022-11-04T09:26:19;3.40;;;1.75;;
44169;SDS011;29836;52.286;9.576;2022-11-04T09:28:46;6.18;;;2.20;;
44169;SDS011;29836;52.286;9.576;2022-11-04T09:31:13;6.03;;;2.20;;
44169;SDS011;29836;52.286;9.576;2022-11-04T09:33:41;6.70;;;2.65;;
44169;SDS011;29836;52.286;9.576;2022-11-04T09:36:07;5.85;;;2.00;;
44169;SDS011;29836;52.286;9.576;2022-11-04T09:38:34;3.03;;;2.08;;
44169;SDS011;29836;52.286;9.576;2022-11-04T09:41:06;5.00;;;2.05;;
44169;SDS011;29836;52.286;9.576;2022-11-04T09:44:03;6.65;;;2.60;;
44169;SDS011;29836;52.286;9.576;2022-11-04T09:46:39;5.03;;;2.40;;
44169;SDS011;29836;52.286;9.576;2022-11-04T09:49:07;8.85;;;2.40;;
44169;SDS011;29836;52.286;9.576;2022-11-04T09:51:35;4.50;;;2.45;;
44169;SDS011;29836;52.286;9.576;2022-11-04T09:54:10;3.45;;;2.30;;
44169;SDS011;29836;52.286;9.576;2022-11-04T09:56:44;5.25;;;2.17;;
44169;SDS011;29836;52.286;9.576;2022-11-04T09:59:14;5.30;;;2.00;;
44169;SDS011;29836;52.286;9.576;2022-11-04T10:01:49;5.47;;;2.20;;
44169;SDS011;29836;52.286;9.576;2022-11-04T10:04:41;6.95;;;1.98;;
44169;SDS011;29836;52.286;9.576;2022-11-04T10:10:08;5.65;;;1.80;;
44169;SDS011;29836;52.286;9.576;2022-11-04T10:13:03;4.70;;;2.00;;
44169;SDS011;29836;52.286;9.576;2022-11-04T10:18:26;2.00;;;1.50;;
44169;SDS011;29836;52.286;9.576;2022-11-04T10:26:08;2.40;;;1.65;;
44169;SDS011;29836;52.286;9.576;2022-11-04T10:28:38;6.32;;;1.73;;
44169;SDS011;29836;52.286;9.576;2022-11-04T10:31:07;4.13;;;1.73;;
44169;SDS011;29836;52.286;9.576;2022-11-04T10:33:38;2.95;;;1.50;;
44169;SDS011;29836;52.286;9.576;2022-11-04T10:36:08;4.47;;;2.00;;
44169;SDS011;29836;52.286;9.576;2022-11-04T10:38:40;2.72;;;1.50;;
44169;SDS011;29836;52.286;9.576;2022-11-04T10:41:29;4.18;;;1.42;;
44169;SDS011;29836;52.286;9.576;2022-11-04T10:46:50;3.55;;;1.48;;
44169;SDS011;29836;52.286;9.576;2022-11-04T10:52:06;2.83;;;1.50;;
44169;SDS011;29836;52.286;9.576;2022-11-04T10:54:37;3.70;;;1.60;;
44169;SDS011;29836;52.286;9.576;2022-11-04T10:57:04;3.80;;;1.77;;
44169;SDS011;29836;52.286;9.576;2022-11-04T11:00:03;4.28;;;1.40;;
44169;SDS011;29836;52.286;9.576;2022-11-04T11:05:11;7.22;;;1.70;;
44169;SDS011;29836;52.286;9.576;2022-11-04T11:07:44;6.45;;;1.83;;
44169;SDS011;29836;52.286;9.576;2022-11-04T11:13:03;2.88;;;1.88;;
44169;SDS011;29836;52.286;9.576;2022-11-04T11:15:35;4.10;;;1.85;;
44169;SDS011;29836;52.286;9.576;2022-11-04T11:20:39;5.30;;;1.88;;
44169;SDS011;29836;52.286;9.576;2022-11-04T11:23:31;4.50;;;1.70;;
44169;SDS011;29836;52.286;9.576;2022-11-04T11:25:58;3.83;;;1.63;;
44169;SDS011;29836;52.286;9.576;2022-11-04T11:28:24;1.40;;;1.20;;
44169;SDS011;29836;52.286;9.576;2022-11-04T11:30:58;2.63;;;1.63;;
44169;SDS011;29836;52.286;9.576;2022-11-04T11:33:32;5.43;;;1.90;;
44169;SDS011;29836;52.286;9.576;2022-11-04T11:41:21;3.38;;;1.50;;
44169;SDS011;29836;52.286;9.576;2022-11-04T11:43:55;4.68;;;1.70;;
44169;SDS011;29836;52.286;9.576;2022-11-04T11:46:27;4.25;;;1.88;;
44169;SDS011;29836;52.286;9.576;2022-11-04T11:48:56;1.88;;;1.27;;
44169;SDS011;29836;52.286;9.576;2022-11-04T11:51:27;4.72;;;1.60;;
44169;SDS011;29836;52.286;9.576;2022-11-04T11:56:34;2.22;;;1.40;;
44169;SDS011;29836;52.286;9.576;2022-11-04T11:59:16;1.90;;;1.40;;
44169;SDS011;29836;52.286;9.576;2022-11-04T12:04:26;2.78;;;1.58;;
44169;SDS011;29836;52.286;9.576;2022-11-04T12:15:46;1.80;;;1.40;;
44169;SDS011;29836;52.286;9.576;2022-11-04T12:18:41;3.38;;;1.30;;
44169;SDS011;29836;52.286;9.576;2022-11-04T12:21:15;2.10;;;1.30;;
44169;SDS011;29836;52.286;9.576;2022-11-04T12:23:54;7.68;;;1.75;;
44169;SDS011;29836;52.286;9.576;2022-11-04T12:32:08;2.85;;;1.65;;
44169;SDS011;29836;52.286;9.576;2022-11-04T12:45:55;4.20;;;1.65;;
44169;SDS011;29836;52.286;9.576;2022-11-04T12:48:30;5.13;;;1.60;;
44169;SDS011;29836;52.286;9.576;2022-11-04T12:51:02;4.43;;;1.42;;
44169;SDS011;29836;52.286;9.576;2022-11-04T12:53:31;2.00;;;1.40;;
44169;SDS011;29836;52.286;9.576;2022-11-04T12:56:21;5.65;;;1.60;;
44169;SDS011;29836;52.286;9.576;2022-11-04T12:59:06;6.82;;;1.35;;
44169;SDS011;29836;52.286;9.576;2022-11-04T13:01:53;3.85;;;1.50;;
44169;SDS011;29836;52.286;9.576;2022-11-04T13:04:34;3.15;;;1.25;;
44169;SDS011;29836;52.286;9.576;2022-11-04T13:07:07;1.73;;;1.20;;
44169;SDS011;29836;52.286;9.576;2022-11-04T13:09:40;3.80;;;1.65;;
44169;SDS011;29836;52.286;9.576;2022-11-04T13:12:37;4.32;;;1.55;;
44169;SDS011;29836;52.286;9.576;2022-11-04T13:17:39;2.00;;;1.25;;
44169;SDS011;29836;52.286;9.576;2022-11-04T13:22:38;3.50;;;0.95;;
44169;SDS011;29836;52.286;9.576;2022-11-04T13:25:08;4.53;;;1.60;;
44169;SDS011;29836;52.286;9.576;2022-11-04T13:27:52;3.88;;;1.48;;
44169;SDS011;29836;52.286;9.576;2022-11-04T13:30:19;5.50;;;1.42;;
44169;SDS011;29836;52.286;9.576;2022-11-04T13:35:28;4.20;;;1.65;;
44169;SDS011;29836;52.286;9.576;2022-11-04T13:38:06;2.58;;;1.30;;
44169;SDS011;29836;52.286;9.576;2022-11-04T13:40:41;5.10;;;1.48;;
44169;SDS011;29836;52.286;9.576;2022-11-04T13:43:29;3.50;;;1.73;;
44169;SDS011;29836;52.286;9.576;2022-11-04T13:48:51;4.18;;;1.70;;
44169;SDS011;29836;52.286;9.576;2022-11-04T13:51:33;2.15;;;1.55;;
44169;SDS011;29836;52.286;9.576;2022-11-04T13:57:02;5.22;;;1.90;;
44169;SDS011;29836;52.286;9.576;2022-11-04T13:59:33;5.72;;;2.13;;
44169;SDS011;29836;52.286;9.576;2022-11-04T14:04:43;5.82;;;2.97;;
44169;SDS011;29836;52.286;9.576;2022-11-04T14:07:11;8.70;;;2.42;;
44169;SDS011;29836;52.286;9.576;2022-11-04T14:14:34;9.52;;;2.10;;
44169;SDS011;29836;52.286;9.576;2022-11-04T14:17:04;3.65;;;2.20;;
44169;SDS011;29836;52.286;9.576;2022-11-04T14:22:33;12.10;;;2.55;;
44169;SDS011;29836;52.286;9.576;2022-11-04T14:27:44;5.22;;;2.33;;
44169;SDS011;29836;52.286;9.576;2022-11-04T14:30:29;3.85;;;2.58;;
44169;SDS011;29836;52.286;9.576;2022-11-04T14:32:58;3.22;;;2.13;;
44169;SDS011;29836;52.286;9.576;2022-11-04T14:35:30;4.03;;;2.60;;
44169;SDS011;29836;52.286;9.576;2022-11-04T14:37:56;6.70;;;2.53;;
44169;SDS011;29836;52.286;9.576;2022-11-04T14:40:42;6.57;;;2.50;;
44169;SDS011;29836;52.286;9.576;2022-11-04T14:43:16;5.00;;;2.60;;
44169;SDS011;29836;52.286;9.576;2022-11-04T14:45:51;5.32;;;2.75;;
44169;SDS011;29836;52.286;9.576;2022-11-04T14:48:19;9.07;;;3.08;;
44169;SDS011;29836;52.286;9.576;2022-11-04T14:50:47;7.15;;;2.85;;
44169;SDS011;29836;52.286;9.576;2022-11-04T14:53:30;10.70;;;4.00;;
44169;SDS011;29836;52.286;9.576;2022-11-04T14:56:04;8.27;;;3.22;;
44169;SDS011;29836;52.286;9.576;2022-11-04T14:58:37;6.22;;;3.35;;
44169;SDS011;29836;52.286;9.576;2022-11-04T15:01:03;8.82;;;3.58;;
44169;SDS011;29836;52.286;9.576;2022-11-04T15:03:33;5.57;;;3.47;;
44169;SDS011;29836;52.286;9.576;2022-11-04T15:06:02;6.90;;;3.33;;
44169;SDS011;29836;52.286;9.576;2022-11-04T15:11:18;9.43;;;3.20;;
44169;SDS011;29836;52.286;9.576;2022-11-04T15:14:16;4.45;;;3.28;;
44169;SDS011;29836;52.286;9.576;2022-11-04T15:16:45;5.63;;;2.97;;
44169;SDS011;29836;52.286;9.576;2022-11-04T15:19:16;5.00;;;2.95;;
44169;SDS011;29836;52.286;9.576;2022-11-04T15:21:57;4.45;;;2.75;;
44169;SDS011;29836;52.286;9.576;2022-11-04T15:24:25;4.80;;;2.38;;
44169;SDS011;29836;52.286;9.576;2022-11-04T15:26:52;5.75;;;3.30;;
44169;SDS011;29836;52.286;9.576;2022-11-04T15:29:19;8.88;;;3.50;;
44169;SDS011;29836;52.286;9.576;2022-11-04T15:31:57;5.32;;;2.90;;
44169;SDS011;29836;52.286;9.576;2022-11-04T15:34:24;8.20;;;3.35;;
44169;SDS011;29836;52.286;9.576;2022-11-04T15:36:53;12.77;;;4.05;;
44169;SDS011;29836;52.286;9.576;2022-11-04T15:41:51;7.10;;;3.58;;
44169;SDS011;29836;52.286;9.576;2022-11-04T15:44:43;9.63;;;3.90;;
44169;SDS011;29836;52.286;9.576;2022-11-04T15:49:42;5.88;;;3.60;;
44169;SDS011;29836;52.286;9.576;2022-11-04T15:52:13;9.27;;;3.30;;
44169;SDS011;29836;52.286;9.576;2022-11-04T15:54:54;5.18;;;3.65;;
44169;SDS011;29836;52.286;9.576;2022-11-04T16:00:07;6.25;;;2.92;;
44169;SDS011;29836;52.286;9.576;2022-11-04T16:02:50;5.43;;;3.40;;
44169;SDS011;29836;52.286;9.576;2022-11-04T16:05:26;7.05;;;3.65;;
44169;SDS011;29836;52.286;9.576;2022-11-04T16:07:54;10.25;;;3.25;;
44169;SDS011;29836;52.286;9.576;2022-11-04T16:10:37;5.90;;;3.13;;
44169;SDS011;29836;52.286;9.576;2022-11-04T16:15:48;4.50;;;2.83;;
44169;SDS011;29836;52.286;9.576;2022-11-04T16:18:34;6.25;;;2.78;;
44169;SDS011;29836;52.286;9.576;2022-11-04T16:21:04;10.35;;;3.67;;
44169;SDS011;29836;52.286;9.576;2022-11-04T16:23:30;6.38;;;2.35;;
44169;SDS011;29836;52.286;9.576;2022-11-04T16:25:58;3.72;;;2.55;;
44169;SDS011;29836;52.286;9.576;2022-11-04T16:28:30;8.43;;;3.33;;
44169;SDS011;29836;52.286;9.576;2022-11-04T16:31:04;7.45;;;3.28;;
44169;SDS011;29836;52.286;9.576;2022-11-04T16:33:47;4.70;;;2.75;;
44169;SDS011;29836;52.286;9.576;2022-11-04T16:36:14;4.85;;;3.10;;
44169;SDS011;29836;52.286;9.576;2022-11-04T16:38:58;5.70;;;3.28;;
44169;SDS011;29836;52.286;9.576;2022-11-04T16:41:28;7.70;;;3.00;;
44169;SDS011;29836;52.286;9.576;2022-11-04T16:43:58;6.07;;;3.67;;
44169;SDS011;29836;52.286;9.576;2022-11-04T16:46:23;5.72;;;3.03;;
44169;SDS011;29836;52.286;9.576;2022-11-04T16:48:50;5.60;;;3.42;;
44169;SDS011;29836;52.286;9.576;2022-11-04T16:51:16;13.13;;;4.03;;
44169;SDS011;29836;52.286;9.576;2022-11-04T16:53:47;6.50;;;4.00;;
44169;SDS011;29836;52.286;9.576;2022-11-04T16:56:15;6.65;;;4.05;;
44169;SDS011;29836;52.286;9.576;2022-11-04T16:58:41;7.55;;;4.57;;
44169;SDS011;29836;52.286;9.576;2022-11-04T17:01:09;10.18;;;4.95;;
44169;SDS011;29836;52.286;9.576;2022-11-04T17:03:39;7.40;;;4.45;;
44169;SDS011;29836;52.286;9.576;2022-11-04T17:06:07;8.00;;;4.85;;
44169;SDS011;29836;52.286;9.576;2022-11-04T17:08:33;7.70;;;4.63;;
44169;SDS011;29836;52.286;9.576;2022-11-04T17:10:59;13.98;;;4.38;;
44169;SDS011;29836;52.286;9.576;2022-11-04T17:13:24;8.80;;;4.70;;
44169;SDS011;29836;52.286;9.576;2022-11-04T17:15:50;8.75;;;4.47;;
44169;SDS011;29836;52.286;9.576;2022-11-04T17:18:16;9.38;;;6.85;;
44169;SDS011;29836;52.286;9.576;2022-11-04T17:20:43;9.57;;;6.25;;
44169;SDS011;29836;52.286;9.576;2022-11-04T17:23:11;8.85;;;6.10;;
44169;SDS011;29836;52.286;9.576;2022-11-04T17:25:38;8.73;;;5.25;;
44169;SDS011;29836;52.286;9.576;2022-11-04T17:28:04;9.07;;;5.47;;
44169;SDS011;29836;52.286;9.576;2022-11-04T17:30:29;10.85;;;5.70;;
44169;SDS011;29836;52.286;9.576;2022-11-04T17:32:55;9.38;;;5.53;;
44169;SDS011;29836;52.286;9.576;2022-11-04T17:35:21;8.88;;;4.70;;